Bookmark and Share
Track history (hours):
 

Goodwill

Last reported at 2014-Feb-11 17:12 UTC. Time now 2014-Apr-21 04:53 UTC.
Position S 26°08' E 153°45'.
Warning: this ship's position is months out of date.

Length 269 m; draft 14.9 m.

Type: Cargo ship. MMSI: 440541000.

NotesDate/timePositionNaut miles runAvg speedWind from/ knotsBaromVisibWave heightAir tempDewpointWater temp
2014-Feb-11 17:12S 26°08' E 153°45'10 9.9
2014-Feb-11 16:08S 26°19' E 153°44'710.1
2014-Feb-11 15:28S 26°25' E 153°44'10 9.9
2014-Feb-11 14:30S 26°35' E 153°43'9 9.6
2014-Feb-11 13:32S 26°44' E 153°44'9 9.0
2014-Feb-11 12:32S 26°53' E 153°44'19 8.8
2014-Feb-11 10:24S 27°12' E 153°42'8 9.9
2014-Feb-11 09:33S 27°20' E 153°39'10 9.7
2014-Feb-11 08:33S 27°29' E 153°37'9 9.1
2014-Feb-11 07:33S 27°38' E 153°36'9 8.9
2014-Feb-11 06:33S 27°47' E 153°35'9 9.0
2014-Feb-11 05:33S 27°56' E 153°37'9 8.9
2014-Feb-11 04:33S 28°05' E 153°39'9 8.7
2014-Feb-11 03:33S 28°13' E 153°40'239 8.8
2014-Feb-10 00:32S 32°07' E 152°42'1010.2
2014-Feb-09 23:33S 32°16' E 152°38'1010.1
2014-Feb-09 22:33S 32°26' E 152°36'10 9.9
2014-Feb-09 21:33S 32°36' E 152°32'106 9.3
2014-Feb-09 10:12S 34°03' E 151°21'  
2014-Feb-06 01:22S 34°21' E 151°01'78 1.8
2014-Feb-04 06:11S 33°20' E 152°00'811.0
2014-Feb-04 05:30S 33°14' E 152°05'1011.0
2014-Feb-04 04:33S 33°05' E 152°11'1211.7
2014-Feb-04 03:33S 32°55' E 152°18'1211.7
2014-Feb-04 02:33S 32°44' E 152°25'1211.6
2014-Feb-04 01:33S 32°34' E 152°32'1111.4
2014-Feb-04 00:33S 32°24' E 152°36'1211.8
2014-Feb-03 23:33S 32°12' E 152°38'24712.4
2014-Feb-03 03:34S 28°10' E 153°40'1312.8
2014-Feb-03 02:34S 27°58' E 153°37'1212.3
2014-Feb-03 01:34S 27°46' E 153°34'1313.0
2014-Feb-03 00:33S 27°33' E 153°37'1313.4
2014-Feb-02 23:33S 27°20' E 153°39'  

Dump ship's entire track history

sailing weather and tide predictions

Goodwill — DSOW6 — position and weather